sensor_id;sensor_type;location;lat;lon;timestamp;P1;durP1;ratioP1;P2;durP2;ratioP2
20593;SDS011;10455;48.732;10.266;2022-07-29T00:01:56;14.25;;;12.80;;
20593;SDS011;10455;48.732;10.266;2022-07-29T00:07:00;10.48;;;9.38;;
20593;SDS011;10455;48.732;10.266;2022-07-29T00:12:02;13.70;;;11.80;;
20593;SDS011;10455;48.732;10.266;2022-07-29T00:17:05;11.55;;;10.45;;
20593;SDS011;10455;48.732;10.266;2022-07-29T00:22:09;10.48;;;9.30;;
20593;SDS011;10455;48.732;10.266;2022-07-29T00:27:11;11.60;;;9.07;;
20593;SDS011;10455;48.732;10.266;2022-07-29T00:32:13;12.70;;;10.18;;
20593;SDS011;10455;48.732;10.266;2022-07-29T00:37:17;7.30;;;6.60;;
20593;SDS011;10455;48.732;10.266;2022-07-29T00:42:19;9.23;;;8.23;;
20593;SDS011;10455;48.732;10.266;2022-07-29T00:47:21;9.90;;;8.90;;
20593;SDS011;10455;48.732;10.266;2022-07-29T00:52:26;9.95;;;8.75;;
20593;SDS011;10455;48.732;10.266;2022-07-29T00:57:28;9.65;;;7.90;;
20593;SDS011;10455;48.732;10.266;2022-07-29T01:02:31;11.25;;;10.07;;
20593;SDS011;10455;48.732;10.266;2022-07-29T01:07:35;11.90;;;10.70;;
20593;SDS011;10455;48.732;10.266;2022-07-29T01:12:38;13.07;;;11.77;;
20593;SDS011;10455;48.732;10.266;2022-07-29T01:17:43;14.07;;;12.57;;
20593;SDS011;10455;48.732;10.266;2022-07-29T01:23:05;18.38;;;15.57;;
20593;SDS011;10455;48.732;10.266;2022-07-29T01:28:19;18.00;;;14.93;;
20593;SDS011;10455;48.732;10.266;2022-07-29T01:33:45;16.48;;;14.13;;
20593;SDS011;10455;48.732;10.266;2022-07-29T01:38:58;16.75;;;14.05;;
20593;SDS011;10455;48.732;10.266;2022-07-29T01:44:10;14.40;;;12.88;;
20593;SDS011;10455;48.732;10.266;2022-07-29T01:49:18;16.27;;;14.20;;
20593;SDS011;10455;48.732;10.266;2022-07-29T01:54:25;19.40;;;16.70;;
20593;SDS011;10455;48.732;10.266;2022-07-29T01:59:32;17.30;;;14.45;;
20593;SDS011;10455;48.732;10.266;2022-07-29T02:04:37;19.60;;;17.45;;
20593;SDS011;10455;48.732;10.266;2022-07-29T02:09:42;20.67;;;18.55;;
20593;SDS011;10455;48.732;10.266;2022-07-29T02:14:47;20.00;;;17.08;;
20593;SDS011;10455;48.732;10.266;2022-07-29T02:19:54;18.75;;;16.85;;
20593;SDS011;10455;48.732;10.266;2022-07-29T02:24:59;18.85;;;16.95;;
20593;SDS011;10455;48.732;10.266;2022-07-29T02:30:03;18.48;;;15.73;;
20593;SDS011;10455;48.732;10.266;2022-07-29T02:35:09;19.52;;;17.02;;
20593;SDS011;10455;48.732;10.266;2022-07-29T02:40:14;21.55;;;19.25;;
20593;SDS011;10455;48.732;10.266;2022-07-29T02:45:17;21.65;;;19.33;;
20593;SDS011;10455;48.732;10.266;2022-07-29T02:50:22;22.70;;;20.33;;
20593;SDS011;10455;48.732;10.266;2022-07-29T02:55:32;15.63;;;14.15;;
20593;SDS011;10455;48.732;10.266;2022-07-29T03:00:37;19.75;;;17.75;;
20593;SDS011;10455;48.732;10.266;2022-07-29T03:05:43;20.67;;;18.48;;
20593;SDS011;10455;48.732;10.266;2022-07-29T03:10:45;25.13;;;20.70;;
20593;SDS011;10455;48.732;10.266;2022-07-29T03:15:48;22.90;;;20.48;;
20593;SDS011;10455;48.732;10.266;2022-07-29T03:20:52;28.00;;;22.97;;
20593;SDS011;10455;48.732;10.266;2022-07-29T03:25:55;23.40;;;20.50;;
20593;SDS011;10455;48.732;10.266;2022-07-29T03:30:57;20.40;;;18.05;;
20593;SDS011;10455;48.732;10.266;2022-07-29T03:36:01;22.57;;;20.13;;
20593;SDS011;10455;48.732;10.266;2022-07-29T03:41:04;26.07;;;23.10;;
20593;SDS011;10455;48.732;10.266;2022-07-29T03:46:10;27.70;;;24.40;;
20593;SDS011;10455;48.732;10.266;2022-07-29T03:51:16;24.40;;;21.93;;
20593;SDS011;10455;48.732;10.266;2022-07-29T03:56:19;28.67;;;25.23;;
20593;SDS011;10455;48.732;10.266;2022-07-29T04:01:23;37.13;;;30.07;;
20593;SDS011;10455;48.732;10.266;2022-07-29T04:06:27;19.87;;;17.77;;
20593;SDS011;10455;48.732;10.266;2022-07-29T04:11:29;21.90;;;19.17;;
20593;SDS011;10455;48.732;10.266;2022-07-29T04:16:31;21.53;;;18.83;;
20593;SDS011;10455;48.732;10.266;2022-07-29T04:21:37;24.63;;;22.20;;
20593;SDS011;10455;48.732;10.266;2022-07-29T04:26:40;27.03;;;24.17;;
20593;SDS011;10455;48.732;10.266;2022-07-29T04:31:42;20.33;;;18.23;;
20593;SDS011;10455;48.732;10.266;2022-07-29T04:36:46;27.43;;;24.40;;
20593;SDS011;10455;48.732;10.266;2022-07-29T04:41:49;26.67;;;23.95;;
20593;SDS011;10455;48.732;10.266;2022-07-29T04:46:51;20.37;;;18.33;;
20593;SDS011;10455;48.732;10.266;2022-07-29T04:51:54;24.80;;;22.27;;
20593;SDS011;10455;48.732;10.266;2022-07-29T04:56:57;23.02;;;18.38;;
20593;SDS011;10455;48.732;10.266;2022-07-29T05:01:59;19.98;;;18.15;;
20593;SDS011;10455;48.732;10.266;2022-07-29T05:07:02;18.95;;;17.02;;
20593;SDS011;10455;48.732;10.266;2022-07-29T05:12:05;17.00;;;15.32;;
20593;SDS011;10455;48.732;10.266;2022-07-29T05:17:07;16.27;;;14.57;;
20593;SDS011;10455;48.732;10.266;2022-07-29T05:22:11;15.38;;;14.02;;
20593;SDS011;10455;48.732;10.266;2022-07-29T05:27:13;11.57;;;9.38;;
20593;SDS011;10455;48.732;10.266;2022-07-29T05:32:15;7.65;;;6.93;;
20593;SDS011;10455;48.732;10.266;2022-07-29T05:37:19;8.50;;;6.78;;
20593;SDS011;10455;48.732;10.266;2022-07-29T05:42:21;7.88;;;6.93;;
20593;SDS011;10455;48.732;10.266;2022-07-29T05:47:24;7.32;;;6.25;;
20593;SDS011;10455;48.732;10.266;2022-07-29T05:52:28;12.52;;;11.18;;
20593;SDS011;10455;48.732;10.266;2022-07-29T05:57:30;19.55;;;17.75;;
20593;SDS011;10455;48.732;10.266;2022-07-29T06:02:33;57.95;;;22.65;;
20593;SDS011;10455;48.732;10.266;2022-07-29T06:07:36;46.60;;;23.60;;
20593;SDS011;10455;48.732;10.266;2022-07-29T06:12:38;52.38;;;24.08;;
20593;SDS011;10455;48.732;10.266;2022-07-29T06:17:40;52.95;;;21.15;;
20593;SDS011;10455;48.732;10.266;2022-07-29T06:22:44;20.48;;;14.98;;
20593;SDS011;10455;48.732;10.266;2022-07-29T06:27:47;21.40;;;15.38;;
20593;SDS011;10455;48.732;10.266;2022-07-29T06:32:49;82.85;;;20.95;;
20593;SDS011;10455;48.732;10.266;2022-07-29T06:37:52;29.67;;;16.58;;
20593;SDS011;10455;48.732;10.266;2022-07-29T06:42:54;21.00;;;14.13;;
20593;SDS011;10455;48.732;10.266;2022-07-29T06:47:56;11.32;;;10.20;;
20593;SDS011;10455;48.732;10.266;2022-07-29T06:53:01;10.80;;;9.88;;
20593;SDS011;10455;48.732;10.266;2022-07-29T06:58:03;23.10;;;12.18;;
20593;SDS011;10455;48.732;10.266;2022-07-29T07:03:07;11.13;;;10.13;;
20593;SDS011;10455;48.732;10.266;2022-07-29T07:08:10;11.57;;;10.48;;
20593;SDS011;10455;48.732;10.266;2022-07-29T07:13:13;11.73;;;10.70;;
20593;SDS011;10455;48.732;10.266;2022-07-29T07:18:17;10.23;;;9.30;;
20593;SDS011;10455;48.732;10.266;2022-07-29T07:23:21;10.45;;;9.55;;
20593;SDS011;10455;48.732;10.266;2022-07-29T07:28:23;10.32;;;9.43;;
20593;SDS011;10455;48.732;10.266;2022-07-29T07:33:25;11.63;;;9.52;;
20593;SDS011;10455;48.732;10.266;2022-07-29T07:38:29;10.20;;;9.27;;
20593;SDS011;10455;48.732;10.266;2022-07-29T07:43:31;11.38;;;10.30;;
20593;SDS011;10455;48.732;10.266;2022-07-29T07:48:33;10.45;;;9.50;;
20593;SDS011;10455;48.732;10.266;2022-07-29T07:53:37;10.65;;;9.75;;
20593;SDS011;10455;48.732;10.266;2022-07-29T07:58:39;10.02;;;9.23;;
20593;SDS011;10455;48.732;10.266;2022-07-29T08:03:41;9.52;;;8.73;;
20593;SDS011;10455;48.732;10.266;2022-07-29T08:08:45;9.68;;;8.88;;
20593;SDS011;10455;48.732;10.266;2022-07-29T08:13:47;8.75;;;7.97;;
20593;SDS011;10455;48.732;10.266;2022-07-29T08:18:49;8.02;;;7.43;;
20593;SDS011;10455;48.732;10.266;2022-07-29T08:23:53;6.60;;;6.10;;
20593;SDS011;10455;48.732;10.266;2022-07-29T08:29:15;6.80;;;6.30;;
20593;SDS011;10455;48.732;10.266;2022-07-29T08:34:17;7.38;;;6.20;;
20593;SDS011;10455;48.732;10.266;2022-07-29T08:39:21;6.95;;;6.13;;
20593;SDS011;10455;48.732;10.266;2022-07-29T08:44:23;5.78;;;5.20;;
20593;SDS011;10455;48.732;10.266;2022-07-29T08:49:26;6.90;;;6.13;;
20593;SDS011;10455;48.732;10.266;2022-07-29T08:54:30;6.35;;;5.75;;
20593;SDS011;10455;48.732;10.266;2022-07-29T08:59:32;5.20;;;4.78;;
20593;SDS011;10455;48.732;10.266;2022-07-29T09:04:35;4.32;;;4.00;;
20593;SDS011;10455;48.732;10.266;2022-07-29T09:09:40;3.50;;;3.17;;
20593;SDS011;10455;48.732;10.266;2022-07-29T09:14:42;3.92;;;3.58;;
20593;SDS011;10455;48.732;10.266;2022-07-29T09:19:45;4.63;;;4.20;;
20593;SDS011;10455;48.732;10.266;2022-07-29T09:24:48;4.30;;;4.00;;
20593;SDS011;10455;48.732;10.266;2022-07-29T09:29:57;7.18;;;4.22;;
20593;SDS011;10455;48.732;10.266;2022-07-29T09:35:16;4.20;;;3.88;;
20593;SDS011;10455;48.732;10.266;2022-07-29T09:40:22;4.68;;;3.92;;
20593;SDS011;10455;48.732;10.266;2022-07-29T09:45:26;3.90;;;3.55;;
20593;SDS011;10455;48.732;10.266;2022-07-29T09:50:36;4.25;;;3.83;;
20593;SDS011;10455;48.732;10.266;2022-07-29T09:55:50;6.28;;;3.95;;
20593;SDS011;10455;48.732;10.266;2022-07-29T10:00:53;3.97;;;3.42;;
20593;SDS011;10455;48.732;10.266;2022-07-29T10:06:06;4.60;;;3.35;;
20593;SDS011;10455;48.732;10.266;2022-07-29T10:11:11;4.13;;;3.70;;
20593;SDS011;10455;48.732;10.266;2022-07-29T10:16:15;6.07;;;4.20;;
20593;SDS011;10455;48.732;10.266;2022-07-29T10:21:17;4.82;;;3.55;;
20593;SDS011;10455;48.732;10.266;2022-07-29T10:26:21;4.18;;;3.47;;
20593;SDS011;10455;48.732;10.266;2022-07-29T10:31:25;4.40;;;3.83;;
20593;SDS011;10455;48.732;10.266;2022-07-29T10:36:34;4.72;;;3.80;;
20593;SDS011;10455;48.732;10.266;2022-07-29T10:47:22;4.43;;;3.97;;
20593;SDS011;10455;48.732;10.266;2022-07-29T10:52:24;5.85;;;4.10;;
20593;SDS011;10455;48.732;10.266;2022-07-29T10:58:12;5.53;;;4.18;;
20593;SDS011;10455;48.732;10.266;2022-07-29T11:08:47;5.25;;;4.78;;
20593;SDS011;10455;48.732;10.266;2022-07-29T11:14:19;6.03;;;5.50;;
20593;SDS011;10455;48.732;10.266;2022-07-29T11:25:34;6.97;;;6.30;;
20593;SDS011;10455;48.732;10.266;2022-07-29T11:30:50;7.72;;;7.03;;
20593;SDS011;10455;48.732;10.266;2022-07-29T11:41:21;6.68;;;6.07;;
20593;SDS011;10455;48.732;10.266;2022-07-29T11:46:46;10.00;;;7.05;;
20593;SDS011;10455;48.732;10.266;2022-07-29T11:51:50;6.57;;;5.88;;
20593;SDS011;10455;48.732;10.266;2022-07-29T11:56:53;7.70;;;5.45;;
20593;SDS011;10455;48.732;10.266;2022-07-29T12:01:57;5.88;;;5.00;;
20593;SDS011;10455;48.732;10.266;2022-07-29T12:07:00;6.07;;;4.60;;
20593;SDS011;10455;48.732;10.266;2022-07-29T12:12:03;4.88;;;3.58;;
20593;SDS011;10455;48.732;10.266;2022-07-29T12:17:06;4.25;;;3.75;;
20593;SDS011;10455;48.732;10.266;2022-07-29T12:22:26;5.43;;;4.43;;
20593;SDS011;10455;48.732;10.266;2022-07-29T12:27:28;4.65;;;4.20;;
20593;SDS011;10455;48.732;10.266;2022-07-29T12:32:33;4.00;;;3.60;;
20593;SDS011;10455;48.732;10.266;2022-07-29T12:37:36;5.38;;;3.53;;
20593;SDS011;10455;48.732;10.266;2022-07-29T12:42:40;4.70;;;4.25;;
20593;SDS011;10455;48.732;10.266;2022-07-29T12:47:52;5.47;;;4.97;;
20593;SDS011;10455;48.732;10.266;2022-07-29T12:53:06;11.02;;;7.97;;
20593;SDS011;10455;48.732;10.266;2022-07-29T12:58:10;10.85;;;9.88;;
20593;SDS011;10455;48.732;10.266;2022-07-29T13:03:13;11.82;;;10.13;;
20593;SDS011;10455;48.732;10.266;2022-07-29T13:08:16;15.20;;;13.90;;
20593;SDS011;10455;48.732;10.266;2022-07-29T13:13:20;17.05;;;15.52;;
20593;SDS011;10455;48.732;10.266;2022-07-29T13:18:30;12.43;;;11.23;;
20593;SDS011;10455;48.732;10.266;2022-07-29T13:23:33;12.63;;;11.50;;
20593;SDS011;10455;48.732;10.266;2022-07-29T13:28:36;10.25;;;9.45;;
20593;SDS011;10455;48.732;10.266;2022-07-29T13:33:40;12.18;;;11.07;;
20593;SDS011;10455;48.732;10.266;2022-07-29T13:38:42;9.80;;;8.90;;
20593;SDS011;10455;48.732;10.266;2022-07-29T13:43:44;14.68;;;11.70;;
20593;SDS011;10455;48.732;10.266;2022-07-29T13:48:48;14.02;;;12.65;;
20593;SDS011;10455;48.732;10.266;2022-07-29T13:53:50;16.63;;;14.75;;
20593;SDS011;10455;48.732;10.266;2022-07-29T13:58:53;22.50;;;19.67;;
20593;SDS011;10455;48.732;10.266;2022-07-29T14:03:56;26.48;;;22.58;;
20593;SDS011;10455;48.732;10.266;2022-07-29T14:08:58;23.90;;;21.38;;
20593;SDS011;10455;48.732;10.266;2022-07-29T14:14:01;24.15;;;21.65;;
20593;SDS011;10455;48.732;10.266;2022-07-29T14:19:04;23.42;;;21.00;;
20593;SDS011;10455;48.732;10.266;2022-07-29T14:24:06;22.33;;;20.20;;
20593;SDS011;10455;48.732;10.266;2022-07-29T14:29:09;18.38;;;16.67;;
20593;SDS011;10455;48.732;10.266;2022-07-29T14:34:12;19.10;;;17.27;;
20593;SDS011;10455;48.732;10.266;2022-07-29T14:39:15;19.98;;;17.95;;
20593;SDS011;10455;48.732;10.266;2022-07-29T14:44:17;16.48;;;14.85;;
20593;SDS011;10455;48.732;10.266;2022-07-29T14:49:21;15.07;;;13.57;;
20593;SDS011;10455;48.732;10.266;2022-07-29T14:54:23;17.45;;;15.93;;
20593;SDS011;10455;48.732;10.266;2022-07-29T14:59:25;18.63;;;16.83;;
20593;SDS011;10455;48.732;10.266;2022-07-29T15:04:29;19.73;;;17.85;;
20593;SDS011;10455;48.732;10.266;2022-07-29T15:09:31;21.23;;;19.38;;
20593;SDS011;10455;48.732;10.266;2022-07-29T15:14:33;21.48;;;19.30;;
20593;SDS011;10455;48.732;10.266;2022-07-29T15:19:37;19.42;;;17.55;;
20593;SDS011;10455;48.732;10.266;2022-07-29T15:24:39;23.80;;;21.45;;
20593;SDS011;10455;48.732;10.266;2022-07-29T15:29:41;23.95;;;21.60;;
20593;SDS011;10455;48.732;10.266;2022-07-29T15:34:47;27.65;;;25.05;;
20593;SDS011;10455;48.732;10.266;2022-07-29T15:39:49;24.08;;;21.75;;
20593;SDS011;10455;48.732;10.266;2022-07-29T15:44:51;27.98;;;25.30;;
20593;SDS011;10455;48.732;10.266;2022-07-29T15:49:56;23.92;;;21.83;;
20593;SDS011;10455;48.732;10.266;2022-07-29T15:54:58;23.95;;;21.73;;
20593;SDS011;10455;48.732;10.266;2022-07-29T16:00:00;26.40;;;24.00;;
20593;SDS011;10455;48.732;10.266;2022-07-29T16:05:05;22.95;;;20.85;;
20593;SDS011;10455;48.732;10.266;2022-07-29T16:10:08;23.50;;;21.38;;
20593;SDS011;10455;48.732;10.266;2022-07-29T16:15:10;23.17;;;20.83;;
20593;SDS011;10455;48.732;10.266;2022-07-29T16:20:13;18.63;;;16.92;;
20593;SDS011;10455;48.732;10.266;2022-07-29T16:25:16;20.58;;;18.65;;
20593;SDS011;10455;48.732;10.266;2022-07-29T16:30:18;18.13;;;16.63;;
20593;SDS011;10455;48.732;10.266;2022-07-29T16:35:23;17.67;;;16.23;;
20593;SDS011;10455;48.732;10.266;2022-07-29T16:40:25;14.93;;;13.63;;
20593;SDS011;10455;48.732;10.266;2022-07-29T16:45:27;15.73;;;13.45;;
20593;SDS011;10455;48.732;10.266;2022-07-29T16:50:31;13.82;;;12.63;;
20593;SDS011;10455;48.732;10.266;2022-07-29T16:55:33;15.30;;;14.05;;
20593;SDS011;10455;48.732;10.266;2022-07-29T17:00:35;15.13;;;13.63;;
20593;SDS011;10455;48.732;10.266;2022-07-29T17:05:39;12.35;;;11.15;;
20593;SDS011;10455;48.732;10.266;2022-07-29T17:10:41;11.80;;;10.02;;
20593;SDS011;10455;48.732;10.266;2022-07-29T17:15:44;10.52;;;9.63;;
20593;SDS011;10455;48.732;10.266;2022-07-29T17:20:47;10.32;;;9.43;;
20593;SDS011;10455;48.732;10.266;2022-07-29T17:25:49;9.38;;;8.57;;
20593;SDS011;10455;48.732;10.266;2022-07-29T17:30:51;10.35;;;8.88;;
20593;SDS011;10455;48.732;10.266;2022-07-29T17:35:55;9.00;;;8.30;;
20593;SDS011;10455;48.732;10.266;2022-07-29T17:41:15;9.15;;;8.30;;
20593;SDS011;10455;48.732;10.266;2022-07-29T17:46:17;8.57;;;7.93;;
20593;SDS011;10455;48.732;10.266;2022-07-29T17:51:22;9.23;;;8.40;;
20593;SDS011;10455;48.732;10.266;2022-07-29T17:56:25;8.95;;;8.05;;
20593;SDS011;10455;48.732;10.266;2022-07-29T18:01:27;9.95;;;9.00;;
20593;SDS011;10455;48.732;10.266;2022-07-29T18:06:30;10.25;;;9.27;;
20593;SDS011;10455;48.732;10.266;2022-07-29T18:11:33;10.70;;;9.38;;
20593;SDS011;10455;48.732;10.266;2022-07-29T18:16:35;10.55;;;9.68;;
20593;SDS011;10455;48.732;10.266;2022-07-29T18:21:38;10.88;;;9.88;;
20593;SDS011;10455;48.732;10.266;2022-07-29T18:26:41;11.57;;;10.27;;
20593;SDS011;10455;48.732;10.266;2022-07-29T18:31:43;12.57;;;11.32;;
20593;SDS011;10455;48.732;10.266;2022-07-29T18:36:47;11.82;;;10.82;;
20593;SDS011;10455;48.732;10.266;2022-07-29T18:41:49;11.50;;;10.18;;
20593;SDS011;10455;48.732;10.266;2022-07-29T18:46:51;11.57;;;10.63;;
20593;SDS011;10455;48.732;10.266;2022-07-29T18:51:56;11.68;;;10.68;;
20593;SDS011;10455;48.732;10.266;2022-07-29T18:56:58;13.27;;;12.05;;
20593;SDS011;10455;48.732;10.266;2022-07-29T19:02:00;14.15;;;12.77;;
20593;SDS011;10455;48.732;10.266;2022-07-29T19:07:04;13.75;;;12.63;;
20593;SDS011;10455;48.732;10.266;2022-07-29T19:12:06;15.45;;;14.10;;
20593;SDS011;10455;48.732;10.266;2022-07-29T19:17:08;16.25;;;14.68;;
20593;SDS011;10455;48.732;10.266;2022-07-29T19:22:12;16.02;;;14.30;;
20593;SDS011;10455;48.732;10.266;2022-07-29T19:27:14;16.25;;;14.77;;
20593;SDS011;10455;48.732;10.266;2022-07-29T19:32:17;16.98;;;15.38;;
20593;SDS011;10455;48.732;10.266;2022-07-29T19:37:22;16.88;;;15.38;;
20593;SDS011;10455;48.732;10.266;2022-07-29T19:42:24;18.85;;;17.05;;
20593;SDS011;10455;48.732;10.266;2022-07-29T19:47:26;18.73;;;17.05;;
20593;SDS011;10455;48.732;10.266;2022-07-29T19:52:30;21.15;;;19.38;;
20593;SDS011;10455;48.732;10.266;2022-07-29T19:57:32;22.23;;;20.23;;
20593;SDS011;10455;48.732;10.266;2022-07-29T20:02:34;22.88;;;20.98;;
20593;SDS011;10455;48.732;10.266;2022-07-29T20:07:38;22.52;;;20.35;;
20593;SDS011;10455;48.732;10.266;2022-07-29T20:12:40;25.70;;;23.45;;
20593;SDS011;10455;48.732;10.266;2022-07-29T20:17:42;23.60;;;21.30;;
20593;SDS011;10455;48.732;10.266;2022-07-29T20:22:46;23.75;;;21.65;;
20593;SDS011;10455;48.732;10.266;2022-07-29T20:27:48;21.65;;;19.85;;
20593;SDS011;10455;48.732;10.266;2022-07-29T20:32:51;22.42;;;20.25;;
20593;SDS011;10455;48.732;10.266;2022-07-29T20:37:55;21.00;;;19.13;;
20593;SDS011;10455;48.732;10.266;2022-07-29T20:42:57;19.27;;;17.48;;
20593;SDS011;10455;48.732;10.266;2022-07-29T20:47:59;16.35;;;14.73;;
20593;SDS011;10455;48.732;10.266;2022-07-29T20:53:03;18.85;;;17.13;;
20593;SDS011;10455;48.732;10.266;2022-07-29T20:58:05;18.90;;;17.20;;
20593;SDS011;10455;48.732;10.266;2022-07-29T21:03:07;19.83;;;17.58;;
20593;SDS011;10455;48.732;10.266;2022-07-29T21:08:11;16.13;;;14.52;;
20593;SDS011;10455;48.732;10.266;2022-07-29T21:13:13;16.30;;;14.90;;
20593;SDS011;10455;48.732;10.266;2022-07-29T21:18:16;16.63;;;15.13;;
20593;SDS011;10455;48.732;10.266;2022-07-29T21:23:30;17.65;;;15.95;;
20593;SDS011;10455;48.732;10.266;2022-07-29T21:28:32;19.75;;;18.05;;
20593;SDS011;10455;48.732;10.266;2022-07-29T21:33:37;18.48;;;16.52;;
20593;SDS011;10455;48.732;10.266;2022-07-29T21:38:42;20.55;;;18.55;;
20593;SDS011;10455;48.732;10.266;2022-07-29T21:43:44;18.65;;;16.80;;
20593;SDS011;10455;48.732;10.266;2022-07-29T21:48:46;19.63;;;17.70;;
20593;SDS011;10455;48.732;10.266;2022-07-29T21:53:50;22.25;;;20.33;;
20593;SDS011;10455;48.732;10.266;2022-07-29T21:58:52;21.05;;;19.15;;
20593;SDS011;10455;48.732;10.266;2022-07-29T22:03:54;21.20;;;19.45;;
20593;SDS011;10455;48.732;10.266;2022-07-29T22:08:58;23.13;;;21.10;;
20593;SDS011;10455;48.732;10.266;2022-07-29T22:14:00;27.27;;;24.83;;
20593;SDS011;10455;48.732;10.266;2022-07-29T22:19:02;29.55;;;26.80;;
20593;SDS011;10455;48.732;10.266;2022-07-29T22:24:06;36.70;;;33.42;;
20593;SDS011;10455;48.732;10.266;2022-07-29T22:29:10;37.83;;;34.30;;
20593;SDS011;10455;48.732;10.266;2022-07-29T22:34:15;43.47;;;39.53;;
20593;SDS011;10455;48.732;10.266;2022-07-29T22:39:19;37.37;;;33.93;;
20593;SDS011;10455;48.732;10.266;2022-07-29T22:44:21;39.30;;;35.90;;
20593;SDS011;10455;48.732;10.266;2022-07-29T22:49:23;75.23;;;69.00;;
20593;SDS011;10455;48.732;10.266;2022-07-29T22:54:27;57.63;;;52.17;;
20593;SDS011;10455;48.732;10.266;2022-07-29T22:59:29;49.33;;;44.27;;
20593;SDS011;10455;48.732;10.266;2022-07-29T23:04:31;49.17;;;44.37;;
20593;SDS011;10455;48.732;10.266;2022-07-29T23:09:34;63.93;;;57.53;;
20593;SDS011;10455;48.732;10.266;2022-07-29T23:14:36;63.93;;;57.43;;
20593;SDS011;10455;48.732;10.266;2022-07-29T23:19:39;64.80;;;58.58;;
20593;SDS011;10455;48.732;10.266;2022-07-29T23:24:42;78.10;;;70.47;;
20593;SDS011;10455;48.732;10.266;2022-07-29T23:29:44;77.07;;;68.80;;
20593;SDS011;10455;48.732;10.266;2022-07-29T23:34:46;81.20;;;72.83;;
20593;SDS011;10455;48.732;10.266;2022-07-29T23:39:50;82.47;;;73.57;;
20593;SDS011;10455;48.732;10.266;2022-07-29T23:44:52;109.40;;;86.30;;
20593;SDS011;10455;48.732;10.266;2022-07-29T23:49:54;96.27;;;81.30;;
20593;SDS011;10455;48.732;10.266;2022-07-29T23:54:58;118.97;;;90.00;;
